Castaert Cam Meer informatie Castaert Cam


puppycam Meer informatie puppycam


Bezoek onze andere website:


U vindt ons ook hier:

Het Weer Aktueel

European Weather Network

Weather Underground

WeatherlinkIP

HAMweather, WeatherForYou, PWS Weather



Het weer levert geen direct gevaar op.    Er zijn geen waarschuwingen afgegeven.

METAR rapporten vliegvelden

   
EHGR - Tilburg
Gewijzigd: 17-10-2018 02:55
Bewolking  
Bewolking  
   Wind: WZW 7.4 km/h
Wind: WZW 7.4 km/h
Temperatuur: 14°C
Dauwpunt: 11°C
Vochtigheid: 82%
Barometer: 1018 mb
Bewolking: Bewolking
Zicht: meer dan 10 km
Bewolking: Bewolking 7010.4 m
EHGR 170055Z AUTO 24004KT 9999 OVC230 14/11 Q1018 BLU
EHEH - Eindhoven
Gewijzigd: 17-10-2018 02:55
Bewolking  
Bewolking  
   Wind: ZZW 5.6 km/h
Wind: ZZW 5.6 km/h
Temperatuur: 12°C
Dauwpunt: 9°C
Vochtigheid: 82%
Barometer: 1018 mb
Bewolking: Bewolking
Zicht: meer dan 10 km
Bewolking: Bewolking 6705.6 m
EHEH 170055Z AUTO 20003KT 9999 OVC220 12/09 Q1018 BLU
EBBL - Olmen
Gewijzigd: 17-10-2018 02:55
Grotendeels bewolkt  
Grotendeels bewolkt  
   Wind: ZW 5.6 km/h
Wind: ZW 5.6 km/h
Temperatuur: 15°C
Dauwpunt: 9°C
Vochtigheid: 68%
Barometer: 1018 mb
Bewolking: Grotendeels bewolkt
Zicht: meer dan 10 km
Bewolking: Grotendeels bewolkt 7010.4 m
EBBL 170055Z AUTO 23003KT 9999 BKN230/// 15/09 Q1018 BLU
EDSB - Lachen
Gewijzigd: 17-10-2018 02:50
  
  
   Wind: Kalm
Wind: Kalm
Zicht: 2 km
EDSB 170050Z AUTO 00000KT 2000 0500 R03/0550D // FEW003/// 06/06 Q1019
  

Script ontwikkeld door  Saratoga-weather.org Aangepast voor de template door  Weerstation Leuven